sensor_id;sensor_type;location;lat;lon;timestamp;P1;durP1;ratioP1;P2;durP2;ratioP2
77984;SDS011;67177;47.240;-1.546;2024-02-21T18:57:51;12.25;;;5.00;;
77984;SDS011;67177;47.240;-1.546;2024-02-21T19:00:17;21.50;;;8.07;;
77984;SDS011;67177;47.240;-1.546;2024-02-21T19:02:47;10.88;;;3.50;;
77984;SDS011;67177;47.240;-1.546;2024-02-21T19:05:16;12.27;;;4.20;;
77984;SDS011;67177;47.240;-1.546;2024-02-21T19:07:42;11.43;;;4.30;;
77984;SDS011;67177;47.240;-1.546;2024-02-21T19:10:08;11.30;;;3.20;;
77984;SDS011;67177;47.240;-1.546;2024-02-21T19:12:34;12.73;;;4.43;;
77984;SDS011;67177;47.240;-1.546;2024-02-21T19:15:02;18.00;;;8.30;;
77984;SDS011;67177;47.240;-1.546;2024-02-21T19:17:29;12.07;;;5.88;;
77984;SDS011;67177;47.240;-1.546;2024-02-21T19:19:56;15.23;;;7.75;;
77984;SDS011;67177;47.240;-1.546;2024-02-21T19:22:22;12.75;;;6.57;;
77984;SDS011;67177;47.240;-1.546;2024-02-21T19:24:50;13.75;;;5.93;;
77984;SDS011;67177;47.240;-1.546;2024-02-21T19:27:15;10.23;;;3.17;;
77984;SDS011;67177;47.240;-1.546;2024-02-21T19:29:41;9.45;;;4.10;;
77984;SDS011;67177;47.240;-1.546;2024-02-21T19:32:07;6.85;;;1.90;;
77984;SDS011;67177;47.240;-1.546;2024-02-21T19:34:33;8.47;;;1.93;;
77984;SDS011;67177;47.240;-1.546;2024-02-21T19:36:58;7.53;;;3.60;;
77984;SDS011;67177;47.240;-1.546;2024-02-21T19:39:26;7.07;;;2.90;;
77984;SDS011;67177;47.240;-1.546;2024-02-21T19:41:52;6.43;;;2.67;;
77984;SDS011;67177;47.240;-1.546;2024-02-21T19:44:18;7.53;;;2.10;;
77984;SDS011;67177;47.240;-1.546;2024-02-21T19:46:48;5.40;;;2.15;;
77984;SDS011;67177;47.240;-1.546;2024-02-21T19:49:14;7.47;;;2.55;;
77984;SDS011;67177;47.240;-1.546;2024-02-21T19:51:39;8.45;;;3.00;;
77984;SDS011;67177;47.240;-1.546;2024-02-21T19:54:05;7.00;;;2.20;;
77984;SDS011;67177;47.240;-1.546;2024-02-21T19:56:31;6.07;;;2.17;;
77984;SDS011;67177;47.240;-1.546;2024-02-21T19:58:57;8.75;;;1.77;;
77984;SDS011;67177;47.240;-1.546;2024-02-21T20:01:23;4.88;;;1.40;;
77984;SDS011;67177;47.240;-1.546;2024-02-21T20:03:49;7.03;;;1.80;;
77984;SDS011;67177;47.240;-1.546;2024-02-21T20:06:15;4.97;;;1.48;;
77984;SDS011;67177;47.240;-1.546;2024-02-21T20:08:42;6.47;;;2.38;;
77984;SDS011;67177;47.240;-1.546;2024-02-21T20:11:07;8.30;;;1.80;;
77984;SDS011;67177;47.240;-1.546;2024-02-21T20:13:33;7.07;;;2.10;;
77984;SDS011;67177;47.240;-1.546;2024-02-21T20:16:00;5.70;;;1.40;;
77984;SDS011;67177;47.240;-1.546;2024-02-21T20:18:26;7.28;;;2.05;;
77984;SDS011;67177;47.240;-1.546;2024-02-21T20:20:52;8.43;;;2.30;;
77984;SDS011;67177;47.240;-1.546;2024-02-21T20:23:18;6.15;;;1.75;;
77984;SDS011;67177;47.240;-1.546;2024-02-21T20:25:45;7.78;;;1.67;;
77984;SDS011;67177;47.240;-1.546;2024-02-21T20:28:16;9.07;;;1.92;;
77984;SDS011;67177;47.240;-1.546;2024-02-21T20:30:42;9.03;;;2.57;;
77984;SDS011;67177;47.240;-1.546;2024-02-21T20:33:09;21.52;;;8.82;;
77984;SDS011;67177;47.240;-1.546;2024-02-21T20:35:34;12.95;;;4.72;;
77984;SDS011;67177;47.240;-1.546;2024-02-21T20:38:00;16.13;;;6.73;;
77984;SDS011;67177;47.240;-1.546;2024-02-21T20:40:28;10.32;;;3.75;;
77984;SDS011;67177;47.240;-1.546;2024-02-21T20:42:53;9.52;;;3.40;;
77984;SDS011;67177;47.240;-1.546;2024-02-21T20:45:19;7.83;;;1.90;;
77984;SDS011;67177;47.240;-1.546;2024-02-21T20:47:45;8.32;;;3.10;;
77984;SDS011;67177;47.240;-1.546;2024-02-21T20:50:11;6.67;;;2.47;;
77984;SDS011;67177;47.240;-1.546;2024-02-21T20:52:38;7.07;;;1.83;;
77984;SDS011;67177;47.240;-1.546;2024-02-21T20:55:04;11.23;;;4.10;;
77984;SDS011;67177;47.240;-1.546;2024-02-21T20:57:31;8.35;;;2.83;;
77984;SDS011;67177;47.240;-1.546;2024-02-21T20:59:58;8.07;;;2.38;;
77984;SDS011;67177;47.240;-1.546;2024-02-21T21:02:24;6.03;;;1.63;;
77984;SDS011;67177;47.240;-1.546;2024-02-21T21:04:49;7.67;;;2.50;;
77984;SDS011;67177;47.240;-1.546;2024-02-21T21:07:16;7.20;;;2.20;;
77984;SDS011;67177;47.240;-1.546;2024-02-21T21:09:41;6.50;;;1.77;;
77984;SDS011;67177;47.240;-1.546;2024-02-21T21:12:07;6.28;;;1.60;;
77984;SDS011;67177;47.240;-1.546;2024-02-21T21:14:33;5.93;;;1.63;;
77984;SDS011;67177;47.240;-1.546;2024-02-21T21:16:59;5.90;;;1.50;;
77984;SDS011;67177;47.240;-1.546;2024-02-21T21:19:28;5.63;;;1.40;;
77984;SDS011;67177;47.240;-1.546;2024-02-21T21:21:54;6.68;;;1.40;;
77984;SDS011;67177;47.240;-1.546;2024-02-21T21:24:23;6.40;;;1.70;;
77984;SDS011;67177;47.240;-1.546;2024-02-21T21:26:49;8.30;;;2.80;;
77984;SDS011;67177;47.240;-1.546;2024-02-21T21:29:16;7.63;;;2.65;;
77984;SDS011;67177;47.240;-1.546;2024-02-21T21:31:41;6.90;;;1.50;;
77984;SDS011;67177;47.240;-1.546;2024-02-21T21:34:10;5.20;;;1.20;;
77984;SDS011;67177;47.240;-1.546;2024-02-21T21:36:37;5.68;;;1.30;;
77984;SDS011;67177;47.240;-1.546;2024-02-21T21:39:02;5.97;;;1.35;;
77984;SDS011;67177;47.240;-1.546;2024-02-21T21:41:30;5.60;;;1.10;;
77984;SDS011;67177;47.240;-1.546;2024-02-21T21:43:56;7.10;;;1.27;;
77984;SDS011;67177;47.240;-1.546;2024-02-21T21:46:21;5.88;;;1.63;;
77984;SDS011;67177;47.240;-1.546;2024-02-21T21:48:47;6.23;;;1.53;;
77984;SDS011;67177;47.240;-1.546;2024-02-21T21:51:13;6.05;;;1.30;;
77984;SDS011;67177;47.240;-1.546;2024-02-21T21:53:39;5.45;;;1.38;;
77984;SDS011;67177;47.240;-1.546;2024-02-21T21:56:08;6.63;;;1.03;;
77984;SDS011;67177;47.240;-1.546;2024-02-21T21:58:33;3.85;;;1.02;;
77984;SDS011;67177;47.240;-1.546;2024-02-21T22:00:59;4.90;;;1.10;;
77984;SDS011;67177;47.240;-1.546;2024-02-21T22:03:25;5.90;;;1.00;;
77984;SDS011;67177;47.240;-1.546;2024-02-21T22:05:51;7.23;;;1.13;;
77984;SDS011;67177;47.240;-1.546;2024-02-21T22:08:16;5.18;;;1.25;;
77984;SDS011;67177;47.240;-1.546;2024-02-21T22:10:42;5.30;;;1.20;;
77984;SDS011;67177;47.240;-1.546;2024-02-21T22:13:07;7.45;;;1.17;;
77984;SDS011;67177;47.240;-1.546;2024-02-21T22:15:33;5.60;;;1.20;;
77984;SDS011;67177;47.240;-1.546;2024-02-21T22:17:59;5.40;;;1.00;;
77984;SDS011;67177;47.240;-1.546;2024-02-21T22:20:25;6.25;;;1.40;;
77984;SDS011;67177;47.240;-1.546;2024-02-21T22:22:51;5.65;;;1.42;;
77984;SDS011;67177;47.240;-1.546;2024-02-21T22:25:17;5.70;;;1.13;;
77984;SDS011;67177;47.240;-1.546;2024-02-21T22:27:42;4.95;;;1.10;;
77984;SDS011;67177;47.240;-1.546;2024-02-21T22:30:08;6.80;;;1.10;;
77984;SDS011;67177;47.240;-1.546;2024-02-21T22:32:35;4.85;;;0.95;;
77984;SDS011;67177;47.240;-1.546;2024-02-21T22:35:01;6.60;;;1.40;;
77984;SDS011;67177;47.240;-1.546;2024-02-21T22:37:26;7.53;;;1.27;;
77984;SDS011;67177;47.240;-1.546;2024-02-21T22:39:52;6.43;;;1.00;;
77984;SDS011;67177;47.240;-1.546;2024-02-21T22:42:18;5.10;;;1.10;;
77984;SDS011;67177;47.240;-1.546;2024-02-21T22:44:43;5.93;;;1.20;;
77984;SDS011;67177;47.240;-1.546;2024-02-21T22:47:09;6.93;;;1.07;;
77984;SDS011;67177;47.240;-1.546;2024-02-21T22:49:35;8.13;;;1.05;;
77984;SDS011;67177;47.240;-1.546;2024-02-21T22:52:01;7.47;;;1.40;;
77984;SDS011;67177;47.240;-1.546;2024-02-21T22:54:27;7.70;;;1.60;;
77984;SDS011;67177;47.240;-1.546;2024-02-21T22:56:53;6.90;;;1.80;;
77984;SDS011;67177;47.240;-1.546;2024-02-21T22:59:18;6.38;;;1.45;;
77984;SDS011;67177;47.240;-1.546;2024-02-21T23:01:44;7.93;;;1.20;;
77984;SDS011;67177;47.240;-1.546;2024-02-21T23:04:10;5.93;;;1.38;;
77984;SDS011;67177;47.240;-1.546;2024-02-21T23:06:36;4.95;;;0.95;;
77984;SDS011;67177;47.240;-1.546;2024-02-21T23:09:02;6.50;;;0.90;;
77984;SDS011;67177;47.240;-1.546;2024-02-21T23:11:29;8.23;;;1.20;;
77984;SDS011;67177;47.240;-1.546;2024-02-21T23:13:56;7.28;;;1.08;;
77984;SDS011;67177;47.240;-1.546;2024-02-21T23:16:21;8.50;;;1.17;;
77984;SDS011;67177;47.240;-1.546;2024-02-21T23:18:47;8.57;;;1.00;;
77984;SDS011;67177;47.240;-1.546;2024-02-21T23:21:13;6.80;;;1.30;;
77984;SDS011;67177;47.240;-1.546;2024-02-21T23:23:38;5.10;;;0.80;;
77984;SDS011;67177;47.240;-1.546;2024-02-21T23:26:04;6.13;;;0.80;;
77984;SDS011;67177;47.240;-1.546;2024-02-21T23:28:30;6.57;;;1.15;;
77984;SDS011;67177;47.240;-1.546;2024-02-21T23:30:55;5.80;;;0.80;;
77984;SDS011;67177;47.240;-1.546;2024-02-21T23:33:21;4.15;;;0.90;;
77984;SDS011;67177;47.240;-1.546;2024-02-21T23:35:46;7.40;;;0.97;;
77984;SDS011;67177;47.240;-1.546;2024-02-21T23:38:12;5.63;;;0.97;;
77984;SDS011;67177;47.240;-1.546;2024-02-21T23:40:39;5.20;;;0.80;;
77984;SDS011;67177;47.240;-1.546;2024-02-21T23:43:05;5.43;;;0.80;;
77984;SDS011;67177;47.240;-1.546;2024-02-21T23:45:31;5.00;;;0.90;;
77984;SDS011;67177;47.240;-1.546;2024-02-21T23:47:59;4.25;;;0.60;;
77984;SDS011;67177;47.240;-1.546;2024-02-21T23:50:24;3.42;;;0.90;;
77984;SDS011;67177;47.240;-1.546;2024-02-21T23:52:50;5.77;;;0.90;;
77984;SDS011;67177;47.240;-1.546;2024-02-21T23:55:15;4.53;;;0.70;;
77984;SDS011;67177;47.240;-1.546;2024-02-21T23:57:41;3.97;;;0.80;;
